Gas Manta — V7VG9 — position and weather

sailwx.info

Track history (hours):
 
Tides and Currents Weather Stations Pressure Air Temp Water Temp Dewpoint Dewpoint Depression Visibility Wind Speed Wind Dir Waves Ship Positions

Gas Manta

Last reported at 2017-Dec-22 09:48 UTC. Time now 2018-Jan-22 12:43 UTC.
Position N 36°30' E 023°43'.
Warning: this ship's position is 31 days out of date.

Length 174 m; draft 10.5 m.

Type: Tanker. MMSI: 538004120.

Date/timePositionNaut miles runAvg speedWind from/ knotsBaromVisibWave heightAir tempDewpointWater temp
2017-Dec-22 09:48N 36°30' E 023°43'413.9
2017-Dec-22 09:30N 36°33' E 023°47'713.6
2017-Dec-22 09:01N 36°38' E 023°52'713.7
2017-Dec-22 08:30N 36°44' E 023°58'713.2
2017-Dec-22 08:00N 36°49' E 024°02'713.7
2017-Dec-22 07:31N 36°56' E 024°04'713.8
2017-Dec-22 07:00N 37°03' E 024°07'713.8
2017-Dec-22 06:30N 37°09' E 024°09'713.8
2017-Dec-22 06:00N 37°16' E 024°12'713.8
2017-Dec-22 05:30N 37°22' E 024°15'714.3
2017-Dec-22 05:00N 37°29' E 024°19'714.5
2017-Dec-22 04:30N 37°35' E 024°24'714.1
2017-Dec-22 04:00N 37°41' E 024°28'714.5
2017-Dec-22 03:30N 37°48' E 024°30'814.5
2017-Dec-22 02:59N 37°54' E 024°35'16913.4
2017-Dec-21 14:23N 40°17' E 026°33'615.0
2017-Dec-21 14:00N 40°21' E 026°39'611.3
2017-Dec-21 13:30N 40°25' E 026°43'714.7
2017-Dec-21 13:00N 40°29' E 026°52'714.5
2017-Dec-21 12:31N 40°32' E 027°00'1 1.5
2017-Dec-21 11:57N 40°33' E 027°01'0 0.0
2017-Dec-21 11:30N 40°33' E 027°01'393 8.1
2017-Dec-19 11:06N 46°27' E 030°55'213.7
2017-Dec-19 10:59N 46°29' E 030°55'8 0.3
2017-Dec-18 04:13N 46°36' E 031°01'2 7.7
2017-Dec-18 04:00N 46°34' E 031°00'3 5.6
2017-Dec-18 03:30N 46°32' E 030°58'1 0.5
2017-Dec-18 01:28N 46°31' E 030°59'0 0.0
2017-Dec-18 00:37N 46°31' E 030°59'0 0.0
2017-Dec-17 22:37N 46°31' E 030°59'0 0.0
2017-Dec-17 17:46N 46°31' E 030°59'0 0.0
2017-Dec-17 17:19N 46°31' E 030°59'0 0.0
2017-Dec-17 16:43N 46°31' E 030°59'0 0.0
2017-Dec-17 16:25N 46°31' E 030°59'0 0.0
2017-Dec-17 15:49N 46°31' E 030°59'0 0.0
2017-Dec-17 00:13N 46°31' E 030°59'0 0.1
2017-Dec-16 23:46N 46°31' E 030°59'0 0.0
2017-Dec-16 21:10N 46°31' E 030°59'0 0.0
2017-Dec-16 20:43N 46°31' E 030°59'0 0.0
2017-Dec-16 20:28N 46°31' E 030°59'0 0.1
2017-Dec-16 17:53N 46°31' E 030°59'2 4.7
2017-Dec-16 17:26N 46°29' E 030°57'613.9
2017-Dec-16 17:00N 46°24' E 030°57'33713.9
2017-Dec-15 16:39N 40°57' E 028°60'413.8
2017-Dec-15 16:20N 40°52' E 029°01'412.9
2017-Dec-15 16:00N 40°49' E 029°03'1 2.3
2017-Dec-15 15:30N 40°48' E 029°04'0 0.3
2017-Dec-15 14:53N 40°47' E 029°03'0 0.8
2017-Dec-15 14:29N 40°47' E 029°03'0 0.7
2017-Dec-15 14:00N 40°47' E 029°03'0 0.7
2017-Dec-15 13:30N 40°47' E 029°02'0 0.7
2017-Dec-15 12:59N 40°47' E 029°02'0 0.7
2017-Dec-15 12:29N 40°46' E 029°02'0 0.7
2017-Dec-15 11:59N 40°46' E 029°01'0 0.6
2017-Dec-15 11:29N 40°46' E 029°01'0 0.5
2017-Dec-15 11:00N 40°46' E 029°01'0 0.6
2017-Dec-15 10:26N 40°46' E 029°00'0 0.7
2017-Dec-15 10:00N 40°45' E 029°00'0 0.8
2017-Dec-15 09:30N 40°45' E 028°60'0 1.0
2017-Dec-15 09:00N 40°45' E 028°59'1 1.2
2017-Dec-15 08:28N 40°45' E 028°59'1 1.1
2017-Dec-15 07:58N 40°44' E 028°58'1 1.6
2017-Dec-15 07:23N 40°44' E 028°57'4 9.4
2017-Dec-15 07:00N 40°47' E 028°55'3 5.7
2017-Dec-15 06:30N 40°49' E 028°52'26212.0
2017-Dec-14 08:38N 37°55' E 024°38'314.1
2017-Dec-14 08:23N 37°52' E 024°37'514.3
2017-Dec-14 08:00N 37°47' E 024°35'714.0
2017-Dec-14 07:31N 37°40' E 024°32'713.7
2017-Dec-14 07:01N 37°34' E 024°27'813.9
2017-Dec-14 06:28N 37°28' E 024°22'613.8
2017-Dec-14 06:00N 37°24' E 024°17'713.4
2017-Dec-14 05:30N 37°18' E 024°13'713.8
2017-Dec-14 05:01N 37°11' E 024°10'714.1
2017-Dec-14 04:31N 37°04' E 024°08'714.0
2017-Dec-14 04:00N 36°58' E 024°05'713.7
2017-Dec-14 03:31N 36°51' E 024°02'714.0
2017-Dec-14 03:01N 36°45' E 023°58'714.2
2017-Dec-14 02:31N 36°41' E 023°51'713.8
2017-Dec-14 02:00N 36°37' E 023°43'713.8
2017-Dec-14 01:30N 36°34' E 023°36'713.9
2017-Dec-14 00:58N 36°30' E 023°28'2112.4
2017-Dec-13 23:16N 36°26' E 023°03'2 0.4
2017-Dec-13 18:55N 36°26' E 023°01'3 8.2
2017-Dec-13 18:30N 36°24' E 022°58'  
Track history (hours):
 
Tides and Currents Weather Stations Pressure Air Temp Water Temp Dewpoint Dewpoint Depression Visibility Wind Speed Wind Dir Waves Ship Positions

Gas Manta

Last reported at 2017-Dec-22 09:48 UTC. Time now 2018-Jan-22 12:43 UTC.
Position N 36°30' E 023°43'.
Warning: this ship's position is 31 days out of date.

Length 174 m; draft 10.5 m.

Type: Tanker. MMSI: 538004120.

Date/timePositionNaut miles runAvg speedWind from/ knotsBaromVisibWave heightAir tempDewpointWater temp
2017-Dec-22 09:48N 36°30' E 023°43'413.9
2017-Dec-22 09:30N 36°33' E 023°47'713.6
2017-Dec-22 09:01N 36°38' E 023°52'713.7
2017-Dec-22 08:30N 36°44' E 023°58'713.2
2017-Dec-22 08:00N 36°49' E 024°02'713.7
2017-Dec-22 07:31N 36°56' E 024°04'713.8
2017-Dec-22 07:00N 37°03' E 024°07'713.8
2017-Dec-22 06:30N 37°09' E 024°09'713.8
2017-Dec-22 06:00N 37°16' E 024°12'713.8
2017-Dec-22 05:30N 37°22' E 024°15'714.3
2017-Dec-22 05:00N 37°29' E 024°19'714.5
2017-Dec-22 04:30N 37°35' E 024°24'714.1
2017-Dec-22 04:00N 37°41' E 024°28'714.5
2017-Dec-22 03:30N 37°48' E 024°30'814.5
2017-Dec-22 02:59N 37°54' E 024°35'16913.4
2017-Dec-21 14:23N 40°17' E 026°33'615.0
2017-Dec-21 14:00N 40°21' E 026°39'611.3
2017-Dec-21 13:30N 40°25' E 026°43'714.7
2017-Dec-21 13:00N 40°29' E 026°52'714.5
2017-Dec-21 12:31N 40°32' E 027°00'1 1.5
2017-Dec-21 11:57N 40°33' E 027°01'0 0.0
2017-Dec-21 11:30N 40°33' E 027°01'393 8.1
2017-Dec-19 11:06N 46°27' E 030°55'213.7
2017-Dec-19 10:59N 46°29' E 030°55'8 0.3
2017-Dec-18 04:13N 46°36' E 031°01'2 7.7
2017-Dec-18 04:00N 46°34' E 031°00'3 5.6
2017-Dec-18 03:30N 46°32' E 030°58'1 0.5
2017-Dec-18 01:28N 46°31' E 030°59'0 0.0
2017-Dec-18 00:37N 46°31' E 030°59'0 0.0
2017-Dec-17 22:37N 46°31' E 030°59'0 0.0
2017-Dec-17 17:46N 46°31' E 030°59'0 0.0
2017-Dec-17 17:19N 46°31' E 030°59'0 0.0
2017-Dec-17 16:43N 46°31' E 030°59'0 0.0
2017-Dec-17 16:25N 46°31' E 030°59'0 0.0
2017-Dec-17 15:49N 46°31' E 030°59'0 0.0
2017-Dec-17 00:13N 46°31' E 030°59'0 0.1
2017-Dec-16 23:46N 46°31' E 030°59'0 0.0
2017-Dec-16 21:10N 46°31' E 030°59'0 0.0
2017-Dec-16 20:43N 46°31' E 030°59'0 0.0
2017-Dec-16 20:28N 46°31' E 030°59'0 0.1
2017-Dec-16 17:53N 46°31' E 030°59'2 4.7
2017-Dec-16 17:26N 46°29' E 030°57'613.9
2017-Dec-16 17:00N 46°24' E 030°57'33713.9
2017-Dec-15 16:39N 40°57' E 028°60'413.8
2017-Dec-15 16:20N 40°52' E 029°01'412.9
2017-Dec-15 16:00N 40°49' E 029°03'1 2.3
2017-Dec-15 15:30N 40°48' E 029°04'0 0.3
2017-Dec-15 14:53N 40°47' E 029°03'0 0.8
2017-Dec-15 14:29N 40°47' E 029°03'0 0.7
2017-Dec-15 14:00N 40°47' E 029°03'0 0.7
2017-Dec-15 13:30N 40°47' E 029°02'0 0.7
2017-Dec-15 12:59N 40°47' E 029°02'0 0.7
2017-Dec-15 12:29N 40°46' E 029°02'0 0.7
2017-Dec-15 11:59N 40°46' E 029°01'0 0.6
2017-Dec-15 11:29N 40°46' E 029°01'0 0.5
2017-Dec-15 11:00N 40°46' E 029°01'0 0.6
2017-Dec-15 10:26N 40°46' E 029°00'0 0.7
2017-Dec-15 10:00N 40°45' E 029°00'0 0.8
2017-Dec-15 09:30N 40°45' E 028°60'0 1.0
2017-Dec-15 09:00N 40°45' E 028°59'1 1.2
2017-Dec-15 08:28N 40°45' E 028°59'1 1.1
2017-Dec-15 07:58N 40°44' E 028°58'1 1.6
2017-Dec-15 07:23N 40°44' E 028°57'4 9.4
2017-Dec-15 07:00N 40°47' E 028°55'3 5.7
2017-Dec-15 06:30N 40°49' E 028°52'26212.0
2017-Dec-14 08:38N 37°55' E 024°38'314.1
2017-Dec-14 08:23N 37°52' E 024°37'514.3
2017-Dec-14 08:00N 37°47' E 024°35'714.0
2017-Dec-14 07:31N 37°40' E 024°32'713.7
2017-Dec-14 07:01N 37°34' E 024°27'813.9
2017-Dec-14 06:28N 37°28' E 024°22'613.8
2017-Dec-14 06:00N 37°24' E 024°17'713.4
2017-Dec-14 05:30N 37°18' E 024°13'713.8
2017-Dec-14 05:01N 37°11' E 024°10'714.1
2017-Dec-14 04:31N 37°04' E 024°08'714.0
2017-Dec-14 04:00N 36°58' E 024°05'713.7
2017-Dec-14 03:31N 36°51' E 024°02'714.0
2017-Dec-14 03:01N 36°45' E 023°58'714.2
2017-Dec-14 02:31N 36°41' E 023°51'713.8
2017-Dec-14 02:00N 36°37' E 023°43'713.8
2017-Dec-14 01:30N 36°34' E 023°36'713.9
2017-Dec-14 00:58N 36°30' E 023°28'2112.4
2017-Dec-13 23:16N 36°26' E 023°03'2 0.4
2017-Dec-13 18:55N 36°26' E 023°01'3 8.2
2017-Dec-13 18:30N 36°24' E 022°58'  

Dump ship's entire track history